sensor_id;sensor_type;location;lat;lon;timestamp;P1;durP1;ratioP1;P2;durP2;ratioP2
79583;SDS011;69053;57.338;18.700;2023-04-24T00:04:53;19.50;;;12.75;;
79583;SDS011;69053;57.338;18.700;2023-04-24T00:09:54;26.90;;;14.32;;
79583;SDS011;69053;57.338;18.700;2023-04-24T00:14:55;16.02;;;10.68;;
79583;SDS011;69053;57.338;18.700;2023-04-24T00:19:55;16.25;;;11.10;;
79583;SDS011;69053;57.338;18.700;2023-04-24T00:24:58;18.35;;;11.95;;
79583;SDS011;69053;57.338;18.700;2023-04-24T00:29:59;19.25;;;12.77;;
79583;SDS011;69053;57.338;18.700;2023-04-24T00:34:59;20.60;;;12.57;;
79583;SDS011;69053;57.338;18.700;2023-04-24T00:40:00;15.27;;;10.35;;
79583;SDS011;69053;57.338;18.700;2023-04-24T00:45:01;17.50;;;11.05;;
79583;SDS011;69053;57.338;18.700;2023-04-24T00:50:03;14.55;;;10.13;;
79583;SDS011;69053;57.338;18.700;2023-04-24T00:55:05;14.43;;;9.45;;
79583;SDS011;69053;57.338;18.700;2023-04-24T01:00:06;16.70;;;11.32;;
79583;SDS011;69053;57.338;18.700;2023-04-24T01:05:13;17.95;;;10.52;;
79583;SDS011;69053;57.338;18.700;2023-04-24T01:10:15;16.35;;;10.27;;
79583;SDS011;69053;57.338;18.700;2023-04-24T01:15:17;22.60;;;12.50;;
79583;SDS011;69053;57.338;18.700;2023-04-24T01:20:18;20.75;;;11.38;;
79583;SDS011;69053;57.338;18.700;2023-04-24T01:25:20;18.35;;;11.63;;
79583;SDS011;69053;57.338;18.700;2023-04-24T01:30:22;17.98;;;10.60;;
79583;SDS011;69053;57.338;18.700;2023-04-24T01:35:22;26.83;;;12.65;;
79583;SDS011;69053;57.338;18.700;2023-04-24T01:40:23;38.20;;;13.70;;
79583;SDS011;69053;57.338;18.700;2023-04-24T01:45:24;33.38;;;13.20;;
79583;SDS011;69053;57.338;18.700;2023-04-24T01:50:24;44.08;;;13.85;;
79583;SDS011;69053;57.338;18.700;2023-04-24T01:55:25;23.48;;;12.18;;
79583;SDS011;69053;57.338;18.700;2023-04-24T02:00:26;34.25;;;14.05;;
79583;SDS011;69053;57.338;18.700;2023-04-24T02:05:26;40.83;;;15.07;;
79583;SDS011;69053;57.338;18.700;2023-04-24T02:10:27;74.97;;;15.02;;
79583;SDS011;69053;57.338;18.700;2023-04-24T02:15:28;48.15;;;14.23;;
79583;SDS011;69053;57.338;18.700;2023-04-24T02:20:28;26.25;;;12.63;;
79583;SDS011;69053;57.338;18.700;2023-04-24T02:25:29;31.17;;;16.20;;
79583;SDS011;69053;57.338;18.700;2023-04-24T02:30:29;36.30;;;12.38;;
79583;SDS011;69053;57.338;18.700;2023-04-24T02:35:30;46.17;;;12.75;;
79583;SDS011;69053;57.338;18.700;2023-04-24T02:40:31;23.80;;;11.35;;
79583;SDS011;69053;57.338;18.700;2023-04-24T02:45:32;20.15;;;10.13;;
79583;SDS011;69053;57.338;18.700;2023-04-24T02:50:34;54.42;;;13.45;;
79583;SDS011;69053;57.338;18.700;2023-04-24T02:55:35;28.67;;;11.32;;
79583;SDS011;69053;57.338;18.700;2023-04-24T03:00:36;24.27;;;11.80;;
79583;SDS011;69053;57.338;18.700;2023-04-24T03:05:37;21.35;;;11.30;;
79583;SDS011;69053;57.338;18.700;2023-04-24T03:10:37;27.33;;;11.88;;
79583;SDS011;69053;57.338;18.700;2023-04-24T03:15:38;28.88;;;11.70;;
79583;SDS011;69053;57.338;18.700;2023-04-24T03:20:38;24.90;;;11.48;;
79583;SDS011;69053;57.338;18.700;2023-04-24T03:25:39;32.33;;;11.23;;
79583;SDS011;69053;57.338;18.700;2023-04-24T03:30:40;20.25;;;10.45;;
79583;SDS011;69053;57.338;18.700;2023-04-24T03:35:41;37.20;;;8.77;;
79583;SDS011;69053;57.338;18.700;2023-04-24T03:40:41;59.45;;;10.20;;
79583;SDS011;69053;57.338;18.700;2023-04-24T03:45:43;61.17;;;10.10;;
79583;SDS011;69053;57.338;18.700;2023-04-24T03:50:43;31.15;;;7.90;;
79583;SDS011;69053;57.338;18.700;2023-04-24T03:55:44;22.48;;;7.28;;
79583;SDS011;69053;57.338;18.700;2023-04-24T04:00:45;25.70;;;7.10;;
79583;SDS011;69053;57.338;18.700;2023-04-24T04:05:48;25.75;;;7.78;;
79583;SDS011;69053;57.338;18.700;2023-04-24T04:10:48;37.92;;;8.82;;
79583;SDS011;69053;57.338;18.700;2023-04-24T04:15:49;42.70;;;10.40;;
79583;SDS011;69053;57.338;18.700;2023-04-24T04:20:50;63.20;;;9.20;;
79583;SDS011;69053;57.338;18.700;2023-04-24T04:25:50;26.55;;;9.57;;
79583;SDS011;69053;57.338;18.700;2023-04-24T04:30:51;37.30;;;10.15;;
79583;SDS011;69053;57.338;18.700;2023-04-24T04:35:55;51.80;;;9.57;;
79583;SDS011;69053;57.338;18.700;2023-04-24T04:40:56;34.80;;;8.77;;
79583;SDS011;69053;57.338;18.700;2023-04-24T04:45:57;36.25;;;9.93;;
79583;SDS011;69053;57.338;18.700;2023-04-24T04:50:58;22.08;;;8.57;;
79583;SDS011;69053;57.338;18.700;2023-04-24T04:55:58;27.75;;;7.75;;
79583;SDS011;69053;57.338;18.700;2023-04-24T05:00:59;17.45;;;8.30;;
79583;SDS011;69053;57.338;18.700;2023-04-24T05:06:00;18.15;;;7.45;;
79583;SDS011;69053;57.338;18.700;2023-04-24T05:11:00;11.10;;;6.47;;
79583;SDS011;69053;57.338;18.700;2023-04-24T05:16:01;11.10;;;6.78;;
79583;SDS011;69053;57.338;18.700;2023-04-24T05:21:02;9.93;;;6.22;;
79583;SDS011;69053;57.338;18.700;2023-04-24T05:26:13;8.60;;;6.05;;
79583;SDS011;69053;57.338;18.700;2023-04-24T05:31:19;10.30;;;6.45;;
79583;SDS011;69053;57.338;18.700;2023-04-24T05:36:22;10.98;;;6.95;;
79583;SDS011;69053;57.338;18.700;2023-04-24T05:41:23;11.27;;;6.85;;
79583;SDS011;69053;57.338;18.700;2023-04-24T05:46:24;9.50;;;6.40;;
79583;SDS011;69053;57.338;18.700;2023-04-24T05:51:27;10.95;;;6.82;;
79583;SDS011;69053;57.338;18.700;2023-04-24T05:56:28;9.30;;;6.22;;
79583;SDS011;69053;57.338;18.700;2023-04-24T06:01:29;9.00;;;5.95;;
79583;SDS011;69053;57.338;18.700;2023-04-24T06:06:31;11.02;;;7.40;;
79583;SDS011;69053;57.338;18.700;2023-04-24T06:11:32;9.48;;;6.43;;
79583;SDS011;69053;57.338;18.700;2023-04-24T06:16:33;8.38;;;6.18;;
79583;SDS011;69053;57.338;18.700;2023-04-24T06:21:33;8.77;;;6.03;;
79583;SDS011;69053;57.338;18.700;2023-04-24T06:26:34;10.90;;;6.85;;
79583;SDS011;69053;57.338;18.700;2023-04-24T06:31:35;9.98;;;6.95;;
79583;SDS011;69053;57.338;18.700;2023-04-24T06:36:37;9.38;;;6.53;;
79583;SDS011;69053;57.338;18.700;2023-04-24T06:41:37;8.30;;;6.13;;
79583;SDS011;69053;57.338;18.700;2023-04-24T06:46:40;6.90;;;5.20;;
79583;SDS011;69053;57.338;18.700;2023-04-24T06:51:41;8.63;;;5.95;;
79583;SDS011;69053;57.338;18.700;2023-04-24T06:56:42;8.18;;;5.72;;
79583;SDS011;69053;57.338;18.700;2023-04-24T07:01:45;8.02;;;5.80;;
79583;SDS011;69053;57.338;18.700;2023-04-24T07:06:46;6.95;;;5.32;;
79583;SDS011;69053;57.338;18.700;2023-04-24T07:11:47;8.18;;;5.57;;
79583;SDS011;69053;57.338;18.700;2023-04-24T07:16:48;7.18;;;5.28;;
79583;SDS011;69053;57.338;18.700;2023-04-24T07:21:49;6.32;;;4.90;;
79583;SDS011;69053;57.338;18.700;2023-04-24T07:26:54;7.07;;;5.03;;
79583;SDS011;69053;57.338;18.700;2023-04-24T07:37:37;3.70;;;3.08;;
79583;SDS011;69053;57.338;18.700;2023-04-24T07:42:37;3.42;;;2.72;;
79583;SDS011;69053;57.338;18.700;2023-04-24T07:47:38;3.22;;;2.80;;
79583;SDS011;69053;57.338;18.700;2023-04-24T07:52:43;3.33;;;2.80;;
79583;SDS011;69053;57.338;18.700;2023-04-24T07:57:44;3.28;;;2.50;;
79583;SDS011;69053;57.338;18.700;2023-04-24T08:02:45;2.30;;;1.85;;
79583;SDS011;69053;57.338;18.700;2023-04-24T08:07:45;2.38;;;1.80;;
79583;SDS011;69053;57.338;18.700;2023-04-24T08:12:48;9.02;;;3.63;;
79583;SDS011;69053;57.338;18.700;2023-04-24T08:17:49;10.00;;;3.55;;
79583;SDS011;69053;57.338;18.700;2023-04-24T08:22:50;28.27;;;4.53;;
79583;SDS011;69053;57.338;18.700;2023-04-24T08:27:51;5.45;;;2.95;;
79583;SDS011;69053;57.338;18.700;2023-04-24T08:32:51;16.08;;;3.20;;
79583;SDS011;69053;57.338;18.700;2023-04-24T08:37:52;43.40;;;4.38;;
79583;SDS011;69053;57.338;18.700;2023-04-24T08:42:54;5.72;;;2.83;;
79583;SDS011;69053;57.338;18.700;2023-04-24T08:47:56;4.72;;;2.75;;
79583;SDS011;69053;57.338;18.700;2023-04-24T08:52:58;8.45;;;2.72;;
79583;SDS011;69053;57.338;18.700;2023-04-24T08:57:59;7.50;;;2.08;;
79583;SDS011;69053;57.338;18.700;2023-04-24T09:03:00;6.88;;;2.45;;
79583;SDS011;69053;57.338;18.700;2023-04-24T09:08:02;3.58;;;2.28;;
79583;SDS011;69053;57.338;18.700;2023-04-24T09:13:05;3.85;;;2.35;;
79583;SDS011;69053;57.338;18.700;2023-04-24T09:18:09;4.28;;;2.35;;
79583;SDS011;69053;57.338;18.700;2023-04-24T09:23:09;3.35;;;2.10;;
79583;SDS011;69053;57.338;18.700;2023-04-24T09:28:16;4.40;;;1.95;;
79583;SDS011;69053;57.338;18.700;2023-04-24T09:33:16;3.38;;;2.10;;
79583;SDS011;69053;57.338;18.700;2023-04-24T09:38:17;3.88;;;1.92;;
79583;SDS011;69053;57.338;18.700;2023-04-24T09:43:18;2.85;;;1.50;;
79583;SDS011;69053;57.338;18.700;2023-04-24T09:48:19;3.60;;;1.90;;
79583;SDS011;69053;57.338;18.700;2023-04-24T09:53:29;3.95;;;1.40;;
79583;SDS011;69053;57.338;18.700;2023-04-24T09:58:30;1.92;;;1.17;;
79583;SDS011;69053;57.338;18.700;2023-04-24T10:03:34;1.85;;;1.15;;
79583;SDS011;69053;57.338;18.700;2023-04-24T10:08:35;2.72;;;1.35;;
79583;SDS011;69053;57.338;18.700;2023-04-24T10:13:41;2.40;;;1.65;;
79583;SDS011;69053;57.338;18.700;2023-04-24T10:18:42;2.30;;;1.35;;
79583;SDS011;69053;57.338;18.700;2023-04-24T10:23:43;2.30;;;1.20;;
79583;SDS011;69053;57.338;18.700;2023-04-24T10:28:47;2.30;;;1.17;;
79583;SDS011;69053;57.338;18.700;2023-04-24T10:33:51;1.85;;;1.20;;
79583;SDS011;69053;57.338;18.700;2023-04-24T10:38:54;2.30;;;1.33;;
79583;SDS011;69053;57.338;18.700;2023-04-24T10:44:13;1.67;;;1.20;;
79583;SDS011;69053;57.338;18.700;2023-04-24T10:49:18;1.50;;;0.85;;
79583;SDS011;69053;57.338;18.700;2023-04-24T10:54:49;1.23;;;0.82;;
79583;SDS011;69053;57.338;18.700;2023-04-24T11:05:18;1.25;;;0.75;;
79583;SDS011;69053;57.338;18.700;2023-04-24T11:10:27;2.28;;;1.33;;
79583;SDS011;69053;57.338;18.700;2023-04-24T11:15:27;1.77;;;1.00;;
79583;SDS011;69053;57.338;18.700;2023-04-24T11:20:30;2.58;;;1.48;;
79583;SDS011;69053;57.338;18.700;2023-04-24T11:25:32;2.55;;;1.52;;
79583;SDS011;69053;57.338;18.700;2023-04-24T11:30:35;2.22;;;1.27;;
79583;SDS011;69053;57.338;18.700;2023-04-24T11:35:40;3.45;;;1.60;;
79583;SDS011;69053;57.338;18.700;2023-04-24T11:40:43;2.50;;;1.75;;
79583;SDS011;69053;57.338;18.700;2023-04-24T11:45:48;2.35;;;1.45;;
79583;SDS011;69053;57.338;18.700;2023-04-24T11:50:50;2.00;;;1.15;;
79583;SDS011;69053;57.338;18.700;2023-04-24T11:55:50;2.28;;;1.50;;
79583;SDS011;69053;57.338;18.700;2023-04-24T12:00:57;2.40;;;1.70;;
79583;SDS011;69053;57.338;18.700;2023-04-24T12:06:04;3.83;;;1.65;;
79583;SDS011;69053;57.338;18.700;2023-04-24T12:11:07;2.22;;;1.33;;
79583;SDS011;69053;57.338;18.700;2023-04-24T12:16:08;2.25;;;1.40;;
79583;SDS011;69053;57.338;18.700;2023-04-24T12:21:17;2.40;;;1.23;;
79583;SDS011;69053;57.338;18.700;2023-04-24T12:26:18;8.30;;;2.55;;
79583;SDS011;69053;57.338;18.700;2023-04-24T12:31:20;2.08;;;1.27;;
79583;SDS011;69053;57.338;18.700;2023-04-24T12:36:21;2.90;;;1.55;;
79583;SDS011;69053;57.338;18.700;2023-04-24T12:41:22;2.53;;;1.40;;
79583;SDS011;69053;57.338;18.700;2023-04-24T12:46:22;2.72;;;1.40;;
79583;SDS011;69053;57.338;18.700;2023-04-24T12:51:23;2.78;;;1.60;;
79583;SDS011;69053;57.338;18.700;2023-04-24T12:56:24;3.60;;;1.77;;
79583;SDS011;69053;57.338;18.700;2023-04-24T13:01:24;4.20;;;2.67;;
79583;SDS011;69053;57.338;18.700;2023-04-24T13:06:26;3.72;;;2.20;;
79583;SDS011;69053;57.338;18.700;2023-04-24T13:11:27;6.00;;;3.17;;
79583;SDS011;69053;57.338;18.700;2023-04-24T13:16:28;3.65;;;2.30;;
79583;SDS011;69053;57.338;18.700;2023-04-24T13:21:29;2.38;;;1.58;;
79583;SDS011;69053;57.338;18.700;2023-04-24T13:26:30;2.80;;;1.85;;
79583;SDS011;69053;57.338;18.700;2023-04-24T13:31:35;2.22;;;1.52;;
79583;SDS011;69053;57.338;18.700;2023-04-24T13:36:36;2.85;;;1.83;;
79583;SDS011;69053;57.338;18.700;2023-04-24T13:41:36;3.38;;;2.00;;
79583;SDS011;69053;57.338;18.700;2023-04-24T13:46:37;3.17;;;2.42;;
79583;SDS011;69053;57.338;18.700;2023-04-24T13:51:38;2.78;;;1.73;;
79583;SDS011;69053;57.338;18.700;2023-04-24T13:56:39;2.08;;;1.30;;
79583;SDS011;69053;57.338;18.700;2023-04-24T14:01:40;6.50;;;1.58;;
79583;SDS011;69053;57.338;18.700;2023-04-24T14:06:41;2.35;;;1.50;;
79583;SDS011;69053;57.338;18.700;2023-04-24T14:11:41;2.17;;;1.40;;
79583;SDS011;69053;57.338;18.700;2023-04-24T14:16:42;9.38;;;1.65;;
79583;SDS011;69053;57.338;18.700;2023-04-24T14:21:43;2.67;;;0.98;;
79583;SDS011;69053;57.338;18.700;2023-04-24T14:26:43;1.20;;;0.90;;
79583;SDS011;69053;57.338;18.700;2023-04-24T14:31:44;1.20;;;0.90;;
79583;SDS011;69053;57.338;18.700;2023-04-24T14:36:44;0.70;;;0.52;;
79583;SDS011;69053;57.338;18.700;2023-04-24T14:41:45;1.40;;;1.00;;
79583;SDS011;69053;57.338;18.700;2023-04-24T14:46:46;1.20;;;0.73;;
79583;SDS011;69053;57.338;18.700;2023-04-24T14:51:46;1.25;;;0.95;;
79583;SDS011;69053;57.338;18.700;2023-04-24T14:56:47;1.50;;;1.30;;
79583;SDS011;69053;57.338;18.700;2023-04-24T15:01:47;1.70;;;1.10;;
79583;SDS011;69053;57.338;18.700;2023-04-24T15:06:48;1.55;;;1.00;;
79583;SDS011;69053;57.338;18.700;2023-04-24T15:11:50;14.65;;;2.05;;
79583;SDS011;69053;57.338;18.700;2023-04-24T15:16:51;2.30;;;1.35;;
79583;SDS011;69053;57.338;18.700;2023-04-24T15:21:51;1.60;;;1.10;;
79583;SDS011;69053;57.338;18.700;2023-04-24T15:26:52;1.90;;;1.23;;
79583;SDS011;69053;57.338;18.700;2023-04-24T15:31:55;2.00;;;1.50;;
79583;SDS011;69053;57.338;18.700;2023-04-24T15:36:58;1.90;;;1.55;;
79583;SDS011;69053;57.338;18.700;2023-04-24T15:41:59;1.70;;;1.40;;
79583;SDS011;69053;57.338;18.700;2023-04-24T15:47:00;1.90;;;1.45;;
79583;SDS011;69053;57.338;18.700;2023-04-24T15:52:01;1.73;;;1.40;;
79583;SDS011;69053;57.338;18.700;2023-04-24T15:57:02;2.17;;;1.60;;
79583;SDS011;69053;57.338;18.700;2023-04-24T16:02:02;2.45;;;1.88;;
79583;SDS011;69053;57.338;18.700;2023-04-24T16:07:04;2.33;;;1.83;;
79583;SDS011;69053;57.338;18.700;2023-04-24T16:12:04;3.72;;;2.30;;
79583;SDS011;69053;57.338;18.700;2023-04-24T16:17:05;4.32;;;3.92;;
79583;SDS011;69053;57.338;18.700;2023-04-24T16:22:05;2.85;;;1.67;;
79583;SDS011;69053;57.338;18.700;2023-04-24T16:27:06;2.55;;;1.98;;
79583;SDS011;69053;57.338;18.700;2023-04-24T16:32:07;2.25;;;1.60;;
79583;SDS011;69053;57.338;18.700;2023-04-24T16:37:08;2.33;;;1.88;;
79583;SDS011;69053;57.338;18.700;2023-04-24T16:42:11;2.17;;;1.75;;
79583;SDS011;69053;57.338;18.700;2023-04-24T16:47:12;2.65;;;1.65;;
79583;SDS011;69053;57.338;18.700;2023-04-24T16:52:13;5.70;;;5.20;;
79583;SDS011;69053;57.338;18.700;2023-04-24T16:57:16;4.22;;;3.33;;
79583;SDS011;69053;57.338;18.700;2023-04-24T17:02:17;3.88;;;3.47;;
79583;SDS011;69053;57.338;18.700;2023-04-24T17:07:17;3.67;;;2.65;;
79583;SDS011;69053;57.338;18.700;2023-04-24T17:12:18;4.60;;;2.88;;
79583;SDS011;69053;57.338;18.700;2023-04-24T17:17:19;4.50;;;3.03;;
79583;SDS011;69053;57.338;18.700;2023-04-24T17:22:22;3.30;;;2.53;;
79583;SDS011;69053;57.338;18.700;2023-04-24T17:27:22;3.60;;;2.58;;
79583;SDS011;69053;57.338;18.700;2023-04-24T17:32:24;2.72;;;2.33;;
79583;SDS011;69053;57.338;18.700;2023-04-24T17:37:25;2.33;;;1.67;;
79583;SDS011;69053;57.338;18.700;2023-04-24T17:42:25;3.30;;;2.13;;
79583;SDS011;69053;57.338;18.700;2023-04-24T17:47:26;2.10;;;1.77;;
79583;SDS011;69053;57.338;18.700;2023-04-24T17:52:29;2.47;;;1.80;;
79583;SDS011;69053;57.338;18.700;2023-04-24T17:57:30;4.95;;;2.40;;
79583;SDS011;69053;57.338;18.700;2023-04-24T18:02:30;3.95;;;3.08;;
79583;SDS011;69053;57.338;18.700;2023-04-24T18:07:49;5.75;;;3.90;;
79583;SDS011;69053;57.338;18.700;2023-04-24T18:18:24;5.32;;;3.53;;
79583;SDS011;69053;57.338;18.700;2023-04-24T18:23:25;4.72;;;3.47;;
79583;SDS011;69053;57.338;18.700;2023-04-24T18:28:26;4.85;;;4.00;;
79583;SDS011;69053;57.338;18.700;2023-04-24T18:33:27;5.03;;;3.38;;
79583;SDS011;69053;57.338;18.700;2023-04-24T18:38:29;6.40;;;4.40;;
79583;SDS011;69053;57.338;18.700;2023-04-24T18:43:30;4.75;;;3.42;;
79583;SDS011;69053;57.338;18.700;2023-04-24T18:48:30;7.07;;;4.82;;
79583;SDS011;69053;57.338;18.700;2023-04-24T18:53:31;6.70;;;4.40;;
79583;SDS011;69053;57.338;18.700;2023-04-24T18:58:32;6.03;;;4.15;;
79583;SDS011;69053;57.338;18.700;2023-04-24T19:03:32;6.28;;;4.15;;
79583;SDS011;69053;57.338;18.700;2023-04-24T19:08:32;4.28;;;3.53;;
79583;SDS011;69053;57.338;18.700;2023-04-24T19:13:33;4.93;;;3.80;;
79583;SDS011;69053;57.338;18.700;2023-04-24T19:18:33;4.65;;;3.75;;
79583;SDS011;69053;57.338;18.700;2023-04-24T19:23:39;6.15;;;4.00;;
79583;SDS011;69053;57.338;18.700;2023-04-24T19:28:51;6.55;;;4.22;;
79583;SDS011;69053;57.338;18.700;2023-04-24T19:33:56;6.00;;;4.72;;
79583;SDS011;69053;57.338;18.700;2023-04-24T19:38:57;5.65;;;4.93;;
79583;SDS011;69053;57.338;18.700;2023-04-24T19:43:57;6.45;;;5.47;;
79583;SDS011;69053;57.338;18.700;2023-04-24T19:48:58;5.68;;;4.80;;
79583;SDS011;69053;57.338;18.700;2023-04-24T19:53:58;7.10;;;4.88;;
79583;SDS011;69053;57.338;18.700;2023-04-24T19:58:58;8.45;;;5.85;;
79583;SDS011;69053;57.338;18.700;2023-04-24T20:04:00;6.32;;;4.85;;
79583;SDS011;69053;57.338;18.700;2023-04-24T20:09:00;8.07;;;5.55;;
79583;SDS011;69053;57.338;18.700;2023-04-24T20:14:01;8.82;;;6.55;;
79583;SDS011;69053;57.338;18.700;2023-04-24T20:19:02;8.65;;;5.85;;
79583;SDS011;69053;57.338;18.700;2023-04-24T20:24:03;8.90;;;6.43;;
79583;SDS011;69053;57.338;18.700;2023-04-24T20:29:05;9.63;;;7.30;;
79583;SDS011;69053;57.338;18.700;2023-04-24T20:34:07;8.40;;;6.00;;
79583;SDS011;69053;57.338;18.700;2023-04-24T20:39:08;11.10;;;7.25;;
79583;SDS011;69053;57.338;18.700;2023-04-24T20:44:08;9.98;;;7.60;;
79583;SDS011;69053;57.338;18.700;2023-04-24T20:49:09;11.00;;;7.03;;
79583;SDS011;69053;57.338;18.700;2023-04-24T20:54:10;9.50;;;7.35;;
79583;SDS011;69053;57.338;18.700;2023-04-24T20:59:10;8.80;;;6.63;;
79583;SDS011;69053;57.338;18.700;2023-04-24T21:04:11;9.25;;;6.80;;
79583;SDS011;69053;57.338;18.700;2023-04-24T21:09:11;10.07;;;7.03;;
79583;SDS011;69053;57.338;18.700;2023-04-24T21:14:12;11.23;;;6.88;;
79583;SDS011;69053;57.338;18.700;2023-04-24T21:19:13;10.10;;;6.57;;
79583;SDS011;69053;57.338;18.700;2023-04-24T21:24:14;10.77;;;7.65;;
79583;SDS011;69053;57.338;18.700;2023-04-24T21:29:15;11.02;;;7.28;;
79583;SDS011;69053;57.338;18.700;2023-04-24T21:34:16;9.90;;;6.63;;
79583;SDS011;69053;57.338;18.700;2023-04-24T21:39:16;10.18;;;6.35;;
79583;SDS011;69053;57.338;18.700;2023-04-24T21:44:17;11.80;;;6.50;;
79583;SDS011;69053;57.338;18.700;2023-04-24T21:49:17;12.82;;;7.03;;
79583;SDS011;69053;57.338;18.700;2023-04-24T21:54:18;12.48;;;7.13;;
79583;SDS011;69053;57.338;18.700;2023-04-24T21:59:19;13.98;;;8.32;;
79583;SDS011;69053;57.338;18.700;2023-04-24T22:04:20;16.83;;;9.90;;
79583;SDS011;69053;57.338;18.700;2023-04-24T22:09:21;15.80;;;9.80;;
79583;SDS011;69053;57.338;18.700;2023-04-24T22:14:21;14.60;;;9.40;;
79583;SDS011;69053;57.338;18.700;2023-04-24T22:19:22;18.27;;;10.48;;
79583;SDS011;69053;57.338;18.700;2023-04-24T22:24:25;20.40;;;11.68;;
79583;SDS011;69053;57.338;18.700;2023-04-24T22:29:25;24.98;;;13.68;;
79583;SDS011;69053;57.338;18.700;2023-04-24T22:34:26;21.05;;;13.10;;
79583;SDS011;69053;57.338;18.700;2023-04-24T22:39:26;21.95;;;13.65;;
79583;SDS011;69053;57.338;18.700;2023-04-24T22:44:27;18.90;;;12.25;;
79583;SDS011;69053;57.338;18.700;2023-04-24T22:49:28;24.40;;;14.48;;
79583;SDS011;69053;57.338;18.700;2023-04-24T22:54:30;22.45;;;13.52;;
79583;SDS011;69053;57.338;18.700;2023-04-24T22:59:31;25.55;;;14.85;;
79583;SDS011;69053;57.338;18.700;2023-04-24T23:04:32;28.60;;;16.08;;
79583;SDS011;69053;57.338;18.700;2023-04-24T23:09:32;23.23;;;14.70;;
79583;SDS011;69053;57.338;18.700;2023-04-24T23:14:33;23.60;;;13.00;;
79583;SDS011;69053;57.338;18.700;2023-04-24T23:19:34;24.77;;;14.27;;
79583;SDS011;69053;57.338;18.700;2023-04-24T23:24:34;26.00;;;14.45;;
79583;SDS011;69053;57.338;18.700;2023-04-24T23:29:35;23.63;;;14.50;;
79583;SDS011;69053;57.338;18.700;2023-04-24T23:34:36;27.60;;;15.48;;
79583;SDS011;69053;57.338;18.700;2023-04-24T23:39:38;30.58;;;15.07;;
79583;SDS011;69053;57.338;18.700;2023-04-24T23:44:39;32.92;;;17.75;;
79583;SDS011;69053;57.338;18.700;2023-04-24T23:49:39;39.35;;;17.98;;
79583;SDS011;69053;57.338;18.700;2023-04-24T23:54:40;34.97;;;18.27;;
79583;SDS011;69053;57.338;18.700;2023-04-24T23:59:40;37.00;;;16.63;;
